Time;durP1;ratioP1;P1;durP2;ratioP2;P2;SDS_P1;SDS_P2;PMS_P1;PMS_P2;Temp;Humidity;BMP_temperature;BMP_pressure;BME280_temperature;BME280_humidity;BME280_pressure;Samples;Min_cycle;Max_cycle;Signal;HPM_P1;HPM_P2
2021/03/04 04:33:22;;;;;;;16.60;11.57;;;;;;;10.37;52.59;99299.53;6889542;23;20238;-82
2021/03/04 04:36:43;;;;;;;15.80;9.77;;;;;;;10.34;52.41;99289.13;6817167;29;20630;-83
2021/03/04 04:40:08;;;;;;;13.20;9.70;;;;;;;10.65;51.67;99291.50;6820195;29;20234;-82
2021/03/04 04:43:29;;;;;;;13.63;9.70;;;;;;;10.83;51.20;99303.50;6820400;29;20234;-83
2021/03/04 04:46:52;;;;;;;12.90;9.60;;;;;;;10.83;51.40;99298.09;6819574;29;20293;-82
2021/03/04 04:50:14;;;;;;;11.07;9.13;;;;;;;10.99;50.89;99310.47;6818569;29;20690;-82
2021/03/04 04:53:35;;;;;;;15.63;9.90;;;;;;;10.43;51.66;99277.19;6818649;29;20211;-82
2021/03/04 04:56:56;;;;;;;11.93;8.20;;;;;;;9.89;53.52;99280.50;6819103;29;20234;-82
2021/03/04 05:00:18;;;;;;;12.50;8.97;;;;;;;10.33;52.86;99279.38;6815538;29;20227;-84
2021/03/04 05:03:39;;;;;;;13.90;9.07;;;;;;;10.26;52.64;99259.59;6812223;29;20638;-84
2021/03/04 05:07:01;;;;;;;11.80;9.20;;;;;;;10.16;52.88;99260.97;6792800;29;20212;-85
2021/03/04 05:10:37;;;;;;;17.30;9.87;;;;;;;10.44;52.14;99278.84;6804708;29;20205;-84
2021/03/04 05:13:58;;;;;;;14.67;10.30;;;;;;;10.46;51.64;99274.09;6802575;29;20209;-84
2021/03/04 05:17:52;;;;;;;12.50;9.63;;;;;;;10.69;51.56;99284.69;6795901;29;20617;-84
2021/03/04 05:21:13;;;;;;;17.33;10.03;;;;;;;10.40;51.76;99277.56;6807129;29;20290;-83
2021/03/04 05:24:35;;;;;;;16.37;10.33;;;;;;;10.16;52.52;99283.31;6813130;29;20218;-84
2021/03/04 05:27:56;;;;;;;14.50;9.70;;;;;;;10.41;52.25;99267.63;6825674;29;20210;-84
2021/03/04 05:31:17;;;;;;;15.27;9.20;;;;;;;10.51;51.15;99249.28;6819704;29;20226;-84
2021/03/04 05:34:38;;;;;;;15.77;9.83;;;;;;;10.34;52.02;99250.56;6826962;29;20202;-84
2021/03/04 05:37:59;;;;;;;14.13;10.30;;;;;;;10.16;51.58;99218.66;6828033;29;20237;-83
2021/03/04 05:41:22;;;;;;;14.93;9.23;;;;;;;10.45;50.29;99239.28;6821626;29;20231;-82
2021/03/04 05:44:43;;;;;;;17.70;10.13;;;;;;;10.29;51.15;99234.13;6823236;29;20214;-83
2021/03/04 05:48:08;;;;;;;14.83;10.07;;;;;;;10.17;52.00;99263.44;6823610;29;20211;-83
2021/03/04 05:51:34;;;;;;;15.43;9.77;;;;;;;10.36;51.40;99261.97;6823985;29;20272;-83
2021/03/04 05:54:56;;;;;;;13.43;10.20;;;;;;;10.31;51.14;99251.78;6825811;29;20242;-83
2021/03/04 05:58:18;;;;;;;14.37;10.13;;;;;;;10.51;50.51;99242.00;6824558;29;20255;-83
2021/03/04 06:01:39;;;;;;;18.10;11.03;;;;;;;10.15;51.43;99217.00;6825001;29;20254;-83
2021/03/04 06:05:00;;;;;;;17.20;11.13;;;;;;;9.79;52.31;99242.25;6825138;29;20199;-82
2021/03/04 06:08:21;;;;;;;18.57;10.53;;;;;;;10.33;51.66;99248.91;6822580;29;20262;-83
2021/03/04 06:11:43;;;;;;;15.73;11.00;;;;;;;10.29;51.57;99232.28;6821677;29;20230;-83
2021/03/04 06:15:07;;;;;;;16.33;11.30;;;;;;;9.86;51.83;99235.09;6817333;29;20234;-82
2021/03/04 06:18:38;;;;;;;16.37;12.70;;;;;;;10.21;51.95;99253.13;6816889;29;20200;-81
2021/03/04 06:21:59;;;;;;;18.50;12.10;;;;;;;9.98;52.17;99247.06;6815829;29;20599;-81
2021/03/04 06:25:21;;;;;;;18.33;11.90;;;;;;;10.03;51.81;99215.84;6816261;29;20262;-81
2021/03/04 06:28:42;;;;;;;17.47;11.20;;;;;;;10.45;50.64;99231.19;6816257;29;20210;-81
2021/03/04 06:32:22;;;;;;;15.50;11.33;;;;;;;10.12;51.06;99230.03;6815065;29;20245;-81
2021/03/04 06:35:46;;;;;;;15.03;10.97;;;;;;;9.85;51.80;99241.50;6734689;29;20228;-82
2021/03/04 06:39:07;;;;;;;17.00;11.20;;;;;;;9.88;51.57;99231.19;6728371;29;20341;-85
2021/03/04 06:42:39;;;;;;;16.07;11.17;;;;;;;10.22;51.36;99244.03;6721533;29;20294;-84
2021/03/04 06:46:04;;;;;;;15.63;10.93;;;;;;;9.81;51.85;99210.59;6735476;29;20209;-84
2021/03/04 06:49:36;;;;;;;15.33;10.93;;;;;;;10.07;51.72;99248.63;6735611;29;20204;-84
2021/03/04 06:52:57;;;;;;;18.93;11.63;;;;;;;10.31;51.72;99242.84;6732302;29;20247;-84
2021/03/04 06:56:28;;;;;;;15.47;11.40;;;;;;;10.33;50.99;99222.75;6735611;29;20449;-84
2021/03/04 06:59:49;;;;;;;19.23;11.33;;;;;;;10.34;51.08;99237.09;6745919;29;20219;-84
2021/03/04 07:03:11;;;;;;;18.03;11.80;;;;;;;10.38;50.93;99233.81;6736994;29;20328;-84
2021/03/04 07:06:35;;;;;;;13.53;10.30;;;;;;;10.10;51.52;99221.31;6734925;29;20212;-82
2021/03/04 07:09:57;;;;;;;16.90;10.73;;;;;;;9.96;52.22;99252.63;6733556;29;20208;-82
2021/03/04 07:13:19;;;;;;;18.77;11.43;;;;;;;10.57;51.14;99246.63;6800539;29;20322;-81
2021/03/04 07:16:43;;;;;;;14.77;10.50;;;;;;;10.38;50.85;99235.66;6814815;29;20774;-82
2021/03/04 07:20:06;;;;;;;21.73;12.37;;;;;;;10.46;51.17;99233.66;6815323;29;20226;-81
2021/03/04 07:23:28;;;;;;;16.33;11.07;;;;;;;10.43;51.35;99246.69;6816319;29;20231;-81
2021/03/04 07:26:50;;;;;;;18.03;11.40;;;;;;;10.32;51.12;99210.31;6815172;29;20202;-83
2021/03/04 07:30:13;;;;;;;16.13;11.17;;;;;;;10.65;50.28;99219.53;6816662;29;20213;-81
2021/03/04 07:33:35;;;;;;;14.47;10.57;;;;;;;10.91;50.32;99235.06;6817585;29;20214;-81
2021/03/04 07:36:57;;;;;;;16.03;10.80;;;;;;;11.08;50.21;99212.13;6817681;29;20287;-81
2021/03/04 07:40:19;;;;;;;12.90;10.20;;;;;;;11.32;49.70;99222.44;6818026;29;20647;-81
2021/03/04 07:43:49;;;;;;;15.97;11.07;;;;;;;11.27;49.66;99203.34;6812839;29;20199;-82
2021/03/04 07:47:10;;;;;;;12.60;10.17;;;;;;;11.32;50.20;99223.28;6807597;29;20675;-81
2021/03/04 07:50:31;;;;;;;23.67;12.73;;;;;;;11.88;49.54;99223.97;6806079;29;20243;-82
2021/03/04 07:53:54;;;;;;;32.57;13.80;;;;;;;12.78;47.75;99217.03;6811213;29;20215;-81
2021/03/04 07:57:17;;;;;;;26.60;13.27;;;;;;;13.61;45.03;99204.38;6815332;29;20240;-79
2021/03/04 08:00:39;;;;;;;32.83;14.17;;;;;;;13.71;44.56;99209.34;6814427;29;20232;-79
2021/03/04 08:04:01;;;;;;;25.20;13.13;;;;;;;13.58;44.62;99187.72;6787228;29;20208;-79
2021/03/04 08:07:26;;;;;;;23.97;13.33;;;;;;;13.89;44.18;99191.31;6805331;29;20214;-79
2021/03/04 08:10:50;;;;;;;28.47;12.77;;;;;;;13.72;44.31;99178.47;6808482;29;20231;-79
2021/03/04 08:14:15;;;;;;;24.10;13.43;;;;;;;14.34;42.99;99186.69;6808136;29;20227;-79
2021/03/04 08:17:37;;;;;;;24.73;13.97;;;;;;;14.52;42.45;99203.84;6815294;29;20230;-80
2021/03/04 08:21:03;;;;;;;19.93;12.60;;;;;;;14.24;42.24;99176.34;6814281;29;20285;-80
2021/03/04 08:24:25;;;;;;;21.47;13.20;;;;;;;14.81;41.62;99156.22;6814919;29;20233;-80
2021/03/04 08:27:47;;;;;;;20.03;12.63;;;;;;;15.56;41.28;99148.50;6819476;29;20206;-80
2021/03/04 08:31:09;;;;;;;24.23;11.47;;;;;;;15.82;39.84;99158.22;6813752;29;20234;-80
2021/03/04 08:34:38;;;;;;;20.63;13.30;;;;;;;16.04;39.77;99159.38;6813765;29;20206;-80
2021/03/04 08:38:01;;;;;;;15.93;12.03;;;;;;;16.35;40.07;99167.25;6798059;29;20706;-80
2021/03/04 08:41:23;;;;;;;18.97;13.60;;;;;;;16.76;39.38;99164.53;6797219;29;20298;-80
2021/03/04 08:44:48;;;;;;;16.83;11.37;;;;;;;17.56;38.44;99150.00;6799327;29;20226;-81
2021/03/04 08:48:11;;;;;;;20.27;12.03;;;;;;;17.47;37.44;99146.00;6810100;29;20265;-80
2021/03/04 08:51:35;;;;;;;18.77;10.73;;;;;;;17.32;36.50;99141.03;6793587;29;20296;-80
2021/03/04 08:55:00;;;;;;;15.33;11.63;;;;;;;17.96;35.37;99129.81;6806956;29;20218;-80
2021/03/04 08:58:23;;;;;;;17.33;11.27;;;;;;;18.13;33.10;99125.25;6811009;29;20226;-80
2021/03/04 09:01:45;;;;;;;14.33;9.20;;;;;;;18.26;31.47;99086.69;6807165;29;20238;-82
2021/03/04 09:05:08;;;;;;;14.13;9.77;;;;;;;18.83;30.44;99101.88;6816331;29;20214;-80
2021/03/04 09:08:33;;;;;;;13.60;8.97;;;;;;;19.38;29.66;99101.81;6816710;29;20219;-79
2021/03/04 09:11:55;;;;;;;15.13;8.43;;;;;;;19.75;28.73;99105.56;6818076;29;20697;-81
2021/03/04 09:15:18;;;;;;;11.60;8.97;;;;;;;20.32;27.35;99106.72;6818639;29;20244;-79
2021/03/04 09:18:43;;;;;;;18.77;10.17;;;;;;;19.54;28.63;99092.72;6815942;29;20206;-80
2021/03/04 09:22:08;;;;;;;12.27;7.93;;;;;;;20.88;26.56;99087.75;6791257;29;20238;-80
2021/03/04 09:25:29;;;;;;;14.10;8.53;;;;;;;20.75;26.32;99090.09;6790481;29;20225;-81
2021/03/04 09:28:51;;;;;;;13.67;8.90;;;;;;;19.40;29.12;99086.81;6808461;29;20211;-81
2021/03/04 09:32:13;;;;;;;15.60;10.30;;;;;;;19.33;30.50;99074.44;6815424;29;20293;-80
2021/03/04 09:35:34;;;;;;;13.23;8.53;;;;;;;19.11;30.24;99000.56;6816724;29;20227;-84
2021/03/04 09:38:57;;;;;;;16.67;9.00;;;;;;;20.03;28.97;99080.66;6817231;29;20215;-84
2021/03/04 09:42:20;;;;;;;11.77;7.60;;;;;;;19.39;28.79;99070.69;6816675;29;20290;-83
2021/03/04 09:45:45;;;;;;;12.37;8.27;;;;;;;19.99;28.02;99079.56;6815932;29;20207;-81
2021/03/04 09:49:07;;;;;;;11.10;7.93;;;;;;;20.43;27.09;99067.38;6813868;29;20214;-80
2021/03/04 09:52:29;;;;;;;14.43;7.97;;;;;;;19.63;27.13;99059.19;6816783;29;20228;-80
2021/03/04 09:55:52;;;;;;;10.03;7.37;;;;;;;20.59;26.18;99060.94;6816379;29;20235;-81
2021/03/04 09:59:17;;;;;;;12.60;7.80;;;;;;;20.16;26.28;99058.41;6817096;29;20222;-81
2021/03/04 10:02:39;;;;;;;16.53;8.27;;;;;;;19.24;27.90;99065.00;6815184;29;20281;-80
2021/03/04 10:06:00;;;;;;;17.53;7.73;;;;;;;20.15;27.36;99030.19;6811321;29;20218;-80
2021/03/04 10:09:25;;;;;;;17.07;8.03;;;;;;;19.57;28.42;99046.53;6815998;29;20215;-80
2021/03/04 10:12:52;;;;;;;14.67;8.20;;;;;;;19.85;28.14;99040.81;6814920;29;20780;-79
2021/03/04 10:16:14;;;;;;;11.90;8.40;;;;;;;19.68;29.02;99022.84;6815781;29;20243;-80
2021/03/04 10:19:35;;;;;;;13.60;8.93;;;;;;;19.72;28.36;99051.34;6816383;29;20214;-80
2021/03/04 10:22:56;;;;;;;13.90;8.70;;;;;;;19.87;27.92;99035.91;6815244;29;20239;-80
2021/03/04 10:26:17;;;;;;;21.27;9.43;;;;;;;19.19;28.98;99021.16;6815988;29;20569;-80
2021/03/04 10:29:39;;;;;;;13.10;8.03;;;;;;;19.83;28.74;99032.06;6815953;29;20218;-80
2021/03/04 10:33:01;;;;;;;13.77;8.83;;;;;;;20.61;27.20;99018.50;6813855;29;20711;-79
2021/03/04 10:36:22;;;;;;;14.97;9.93;;;;;;;20.62;28.29;99008.34;6814884;29;20238;-80
2021/03/04 10:39:44;;;;;;;18.40;11.00;;;;;;;20.91;28.09;99023.34;6814827;29;20222;-80
2021/03/04 10:43:05;;;;;;;18.20;9.60;;;;;;;20.90;28.16;99032.66;6814550;29;20721;-80
2021/03/04 10:46:28;;;;;;;17.03;9.37;;;;;;;20.34;28.53;99011.44;6814783;29;20205;-80
2021/03/04 10:49:50;;;;;;;17.13;9.70;;;;;;;21.23;27.83;99022.97;6813970;29;20209;-80
2021/03/04 10:53:11;;;;;;;18.13;10.83;;;;;;;20.88;28.33;99002.75;6814601;29;20290;-80
2021/03/04 10:56:32;;;;;;;16.17;10.33;;;;;;;21.38;27.79;99006.56;6810292;29;20232;-80
2021/03/04 10:59:53;;;;;;;22.23;11.37;;;;;;;21.19;28.10;99002.63;6794313;29;20218;-80
2021/03/04 11:03:15;;;;;;;18.77;10.63;;;;;;;21.17;28.22;99001.25;6788065;29;20221;-80
2021/03/04 11:06:36;;;;;;;18.20;11.10;;;;;;;21.13;27.93;99002.91;6794823;29;20205;-81
2021/03/04 11:09:57;;;;;;;17.57;10.63;;;;;;;21.58;27.53;99003.03;6812759;29;20208;-80
2021/03/04 11:13:19;;;;;;;14.57;10.03;;;;;;;21.37;27.10;98973.91;6815012;29;20249;-80
2021/03/04 11:16:40;;;;;;;16.10;9.73;;;;;;;21.63;27.06;98990.16;6814255;29;20308;-80
2021/03/04 11:20:03;;;;;;;19.87;9.90;;;;;;;21.24;26.39;98988.94;6813184;29;20691;-81
2021/03/04 11:23:24;;;;;;;16.77;10.13;;;;;;;21.83;26.28;98976.50;6813967;29;20240;-82
2021/03/04 11:26:45;;;;;;;16.07;9.83;;;;;;;21.73;26.58;98990.19;6813370;29;20204;-79
2021/03/04 11:30:07;;;;;;;19.50;10.40;;;;;;;21.00;28.53;98977.91;6813346;29;20215;-81
2021/03/04 11:33:30;;;;;;;21.67;11.30;;;;;;;20.83;29.15;98978.88;6813432;29;20238;-81
2021/03/04 11:36:52;;;;;;;17.37;11.47;;;;;;;21.23;28.37;98960.97;6812802;29;20240;-82
2021/03/04 11:40:14;;;;;;;23.67;12.70;;;;;;;21.25;29.09;98927.50;6812032;29;20213;-82
2021/03/04 11:43:35;;;;;;;16.27;11.60;;;;;;;21.07;29.18;98951.06;6813132;29;20283;-82
2021/03/04 11:46:56;;;;;;;20.50;11.40;;;;;;;21.89;28.48;98941.66;6813516;29;20218;-83
2021/03/04 11:50:18;;;;;;;22.27;12.40;;;;;;;21.62;28.27;98927.31;6813032;29;20203;-82
2021/03/04 11:53:40;;;;;;;20.83;12.63;;;;;;;20.88;29.50;98927.91;6813817;29;20210;-82
2021/03/04 11:57:01;;;;;;;26.50;11.53;;;;;;;21.56;28.77;98918.28;6820550;29;20296;-83
2021/03/04 12:00:22;;;;;;;22.67;12.40;;;;;;;21.39;28.86;98922.34;6812294;29;20212;-82
2021/03/04 12:03:43;;;;;;;23.33;13.10;;;;;;;21.41;29.27;98917.41;6814637;29;20187;-83
2021/03/04 12:07:05;;;;;;;81.93;44.93;;;;;;;21.76;28.56;98903.75;6814715;29;20571;-83
2021/03/04 12:10:27;;;;;;;67.00;35.63;;;;;;;21.86;28.53;98888.13;6814208;29;20209;-82
2021/03/04 12:13:48;;;;;;;16.97;11.30;;;;;;;20.67;29.62;98885.06;6787164;29;20275;-82
2021/03/04 12:17:09;;;;;;;24.17;12.77;;;;;;;21.42;28.51;98888.88;6793104;29;20254;-83
2021/03/04 12:20:30;;;;;;;20.60;11.13;;;;;;;20.99;29.40;98894.81;6813147;29;20243;-83
2021/03/04 12:23:51;;;;;;;19.37;11.10;;;;;;;20.08;30.45;98883.66;6812378;29;20220;-82
2021/03/04 12:27:14;;;;;;;19.67;9.80;;;;;;;20.83;28.81;98881.31;6806158;29;20217;-83
2021/03/04 12:30:35;;;;;;;16.70;9.37;;;;;;;21.30;28.19;98872.69;6786749;29;20242;-83
2021/03/04 12:33:56;;;;;;;14.07;8.13;;;;;;;21.24;27.77;98881.19;6794411;29;20203;-83
2021/03/04 12:37:18;;;;;;;19.43;9.00;;;;;;;20.44;27.84;98826.09;6822654;29;20226;-84
2021/03/04 12:40:39;;;;;;;16.83;8.40;;;;;;;20.84;27.21;98856.38;6821695;29;20307;-82
2021/03/04 12:44:01;;;;;;;16.57;5.90;;;;;;;20.55;26.57;98826.94;6822358;29;20210;-83
2021/03/04 12:47:23;;;;;;;16.37;6.30;;;;;;;20.72;25.35;98846.72;6822573;29;20572;-83
2021/03/04 12:50:44;;;;;;;13.47;5.57;;;;;;;20.52;25.35;98860.38;6812339;29;20235;-83
2021/03/04 12:54:07;;;;;;;18.73;5.30;;;;;;;20.18;26.04;98856.34;6794131;29;20215;-83
2021/03/04 12:57:28;;;;;;;11.77;4.80;;;;;;;20.24;26.43;98850.66;6815825;29;20313;-83
2021/03/04 13:00:50;;;;;;;15.47;4.83;;;;;;;20.37;25.42;98854.81;6819129;29;20229;-83
2021/03/04 13:04:11;;;;;;;12.20;4.63;;;;;;;20.29;26.29;98841.63;6820359;29;20217;-83
2021/03/04 13:07:32;;;;;;;12.90;4.70;;;;;;;20.40;26.15;98822.22;6800453;29;20213;-83
2021/03/04 13:10:53;;;;;;;8.60;4.77;;;;;;;20.35;26.27;98838.63;6791964;29;20236;-82
2021/03/04 13:14:14;;;;;;;10.07;4.60;;;;;;;19.72;26.55;98847.00;6792973;29;20217;-82
2021/03/04 13:17:36;;;;;;;12.37;5.90;;;;;;;20.80;25.37;98814.16;6789400;29;20239;-83
2021/03/04 13:20:57;;;;;;;16.10;5.60;;;;;;;20.93;25.00;98829.28;6808175;29;20696;-83
2021/03/04 13:24:19;;;;;;;12.77;4.43;;;;;;;21.00;24.92;98824.38;6807613;29;20241;-83
2021/03/04 13:27:40;;;;;;;10.23;4.93;;;;;;;21.10;24.51;98827.13;6792317;29;20218;-83
2021/03/04 13:31:01;;;;;;;14.30;5.13;;;;;;;21.50;24.11;98806.03;6791221;29;20240;-83
2021/03/04 13:34:24;;;;;;;12.23;4.73;;;;;;;21.53;24.12;98810.97;6787544;29;20222;-82
2021/03/04 13:37:45;;;;;;;11.87;4.77;;;;;;;21.17;24.18;98806.56;6813061;29;20345;-83
2021/03/04 13:41:07;;;;;;;11.40;4.60;;;;;;;20.76;24.81;98801.25;6815562;29;20286;-83
2021/03/04 13:44:28;;;;;;;13.40;4.83;;;;;;;20.80;24.84;98785.94;6816135;29;20209;-83
2021/03/04 13:47:49;;;;;;;13.37;5.40;;;;;;;19.96;26.33;98781.72;6816798;29;20217;-83
2021/03/04 13:51:11;;;;;;;9.27;4.57;;;;;;;20.19;26.10;98760.25;6815326;29;20226;-82
2021/03/04 13:54:32;;;;;;;13.77;4.90;;;;;;;20.71;26.01;98799.34;6815985;29;20736;-83
2021/03/04 13:57:54;;;;;;;12.10;4.97;;;;;;;21.36;25.00;98793.97;6815894;29;20248;-82
2021/03/04 14:01:15;;;;;;;13.47;5.30;;;;;;;20.68;25.05;98783.44;6815203;29;20705;-83
2021/03/04 14:04:36;;;;;;;12.10;5.17;;;;;;;20.31;24.95;98790.97;6815740;29;20318;-82
2021/03/04 14:07:58;;;;;;;11.43;4.37;;;;;;;20.64;24.94;98796.00;6816194;29;20212;-83
2021/03/04 14:11:21;;;;;;;9.90;4.87;;;;;;;20.00;25.28;98802.84;6815148;29;20248;-82
2021/03/04 14:14:42;;;;;;;12.37;5.10;;;;;;;19.65;25.89;98749.81;6810230;29;20217;-82
2021/03/04 14:18:03;;;;;;;12.90;5.80;;;;;;;19.77;25.96;98797.78;6796656;29;20225;-81
2021/03/04 14:21:25;;;;;;;11.47;4.73;;;;;;;19.99;26.32;98790.22;6810876;29;20286;-83
2021/03/04 14:24:47;;;;;;;10.87;4.90;;;;;;;19.74;26.37;98798.31;6815307;29;20592;-82
2021/03/04 14:28:08;;;;;;;9.60;4.90;;;;;;;18.58;27.89;98790.13;6801582;29;20223;-81
2021/03/04 14:31:29;;;;;;;12.13;5.13;;;;;;;19.12;27.68;98786.31;6812435;29;20230;-81
2021/03/04 14:34:50;;;;;;;11.97;5.27;;;;;;;19.51;27.16;98786.94;6814357;29;20208;-81
2021/03/04 14:38:12;;;;;;;12.90;4.70;;;;;;;19.86;26.45;98781.69;6815755;29;20751;-82
2021/03/04 14:41:34;;;;;;;17.10;5.10;;;;;;;18.19;27.70;98722.22;6814254;29;20227;-81
2021/03/04 14:44:55;;;;;;;11.97;4.87;;;;;;;18.91;27.96;98787.19;6815074;29;20211;-82
2021/03/04 14:48:16;;;;;;;7.43;4.60;;;;;;;19.14;27.70;98781.41;6814469;29;20202;-81
2021/03/04 14:51:37;;;;;;;15.57;5.70;;;;;;;19.13;27.85;98763.38;6813565;29;20246;-81
2021/03/04 14:54:58;;;;;;;10.50;5.40;;;;;;;19.37;27.87;98761.94;6813371;29;20223;-81
2021/03/04 14:58:20;;;;;;;12.53;5.20;;;;;;;18.91;28.31;98762.63;6814302;29;20232;-83
2021/03/04 15:01:41;;;;;;;16.90;5.77;;;;;;;18.89;28.28;98769.41;6815315;29;20723;-79
2021/03/04 15:05:03;;;;;;;10.53;4.93;;;;;;;19.11;28.25;98770.19;6810790;29;20211;-83
2021/03/04 15:08:24;;;;;;;20.67;15.07;;;;;;;19.31;28.11;98765.72;6787735;29;20212;-81
2021/03/04 15:11:45;;;;;;;68.53;50.37;;;;;;;19.21;28.03;98734.75;6788121;29;20247;-82
2021/03/04 15:15:08;;;;;;;12.97;6.57;;;;;;;18.66;28.82;98759.66;6790766;29;20352;-82
2021/03/04 15:18:30;;;;;;;14.40;8.40;;;;;;;19.00;28.57;98757.50;6787645;29;20232;-81
2021/03/04 15:21:51;;;;;;;14.37;5.47;;;;;;;17.71;29.83;98758.47;6788083;29;20694;-81
2021/03/04 15:25:13;;;;;;;22.47;11.20;;;;;;;18.02;29.97;98733.22;6787344;29;20211;-81
2021/03/04 15:28:34;;;;;;;19.70;5.23;;;;;;;19.05;28.86;98761.09;6787462;29;20216;-81
2021/03/04 15:31:56;;;;;;;10.83;5.40;;;;;;;19.51;28.07;98756.84;6785611;29;20253;-82
2021/03/04 15:35:17;;;;;;;13.93;6.37;;;;;;;19.30;28.05;98750.41;6787243;29;20201;-82
2021/03/04 15:38:38;;;;;;;10.93;6.17;;;;;;;18.31;30.37;98742.88;6787907;29;20259;-82
2021/03/04 15:42:00;;;;;;;14.87;4.87;;;;;;;18.14;31.58;98755.75;6787384;29;20228;-82
2021/03/04 15:45:25;;;;;;;11.50;5.07;;;;;;;18.60;30.48;98744.28;6788104;29;20216;-81
2021/03/04 15:48:47;;;;;;;13.60;5.03;;;;;;;19.09;29.21;98698.53;6800154;29;20213;-84
2021/03/04 15:52:08;;;;;;;9.57;4.93;;;;;;;19.24;29.31;98736.97;6813542;29;20730;-81
2021/03/04 15:55:29;;;;;;;13.73;4.50;;;;;;;19.21;29.24;98708.22;6813654;29;20301;-81
2021/03/04 15:58:50;;;;;;;8.30;4.67;;;;;;;19.51;27.70;98724.84;6813105;29;20232;-81
2021/03/04 16:02:11;;;;;;;47.77;27.37;;;;;;;19.23;28.20;98727.91;6812138;29;20238;-81
2021/03/04 16:05:33;;;;;;;26.23;12.73;;;;;;;18.50;28.89;98733.25;6813037;29;20698;-80
2021/03/04 16:08:54;;;;;;;11.87;5.07;;;;;;;18.83;28.83;98733.03;6813267;29;20239;-80
2021/03/04 16:12:16;;;;;;;18.17;4.60;;;;;;;18.77;28.96;98730.50;6808683;29;20766;-81
2021/03/04 16:15:37;;;;;;;12.97;4.60;;;;;;;18.78;29.09;98732.16;6793134;29;20232;-81
2021/03/04 16:18:58;;;;;;;13.80;4.63;;;;;;;18.78;29.08;98710.31;6808875;29;20227;-81
2021/03/04 16:22:21;;;;;;;15.80;5.23;;;;;;;18.55;28.86;98719.66;6811021;29;20223;-80
2021/03/04 16:25:42;;;;;;;12.20;4.60;;;;;;;18.62;29.16;98722.16;6802096;29;20207;-81
2021/03/04 16:29:03;;;;;;;11.60;4.63;;;;;;;19.07;29.31;98717.94;6786390;29;20218;-81
2021/03/04 16:32:24;;;;;;;7.63;4.00;;;;;;;18.51;30.21;98655.72;6786090;29;20240;-81
2021/03/04 16:35:45;;;;;;;10.73;4.40;;;;;;;18.78;30.32;98716.59;6798894;29;20209;-81
2021/03/04 16:39:08;;;;;;;8.20;4.17;;;;;;;18.20;31.16;98726.59;6795533;29;20647;-81
2021/03/04 16:42:29;;;;;;;9.60;4.10;;;;;;;18.36;31.28;98723.00;6787434;29;20581;-81
2021/03/04 16:45:50;;;;;;;8.37;4.40;;;;;;;18.07;31.37;98714.19;6812321;29;20214;-81
2021/03/04 16:49:12;;;;;;;14.60;4.27;;;;;;;18.08;31.50;98715.00;6805439;29;20222;-82
2021/03/04 16:52:33;;;;;;;9.47;4.20;;;;;;;17.90;31.82;98716.16;6812092;29;20231;-81
2021/03/04 16:55:55;;;;;;;13.50;3.80;;;;;;;17.76;31.80;98703.16;6812884;29;20680;-80
2021/03/04 16:59:16;;;;;;;14.97;4.90;;;;;;;17.16;32.83;98710.44;6812243;29;20231;-81
2021/03/04 17:02:38;;;;;;;7.30;4.07;;;;;;;17.42;32.73;98713.34;6801466;29;20231;-81
2021/03/04 17:05:59;;;;;;;8.00;4.07;;;;;;;17.54;32.02;98688.66;6796279;29;20287;-80
2021/03/04 17:09:20;;;;;;;15.20;4.57;;;;;;;17.88;31.26;98709.31;6813912;29;20223;-81
2021/03/04 17:12:42;;;;;;;9.17;4.63;;;;;;;17.62;31.45;98682.78;6813918;29;20281;-81
2021/03/04 17:16:04;;;;;;;9.53;5.13;;;;;;;17.63;31.88;98700.81;6814293;29;20672;-81
2021/03/04 17:19:25;;;;;;;10.17;5.60;;;;;;;16.90;32.83;98694.75;6816634;29;20292;-81
2021/03/04 17:22:46;;;;;;;14.27;5.20;;;;;;;17.43;32.50;98712.25;6818222;29;20222;-81
2021/03/04 17:26:07;;;;;;;9.47;4.87;;;;;;;17.58;31.76;98668.03;6818497;29;20217;-81
2021/03/04 17:29:29;;;;;;;9.20;4.63;;;;;;;17.70;31.93;98698.72;6817723;29;20206;-81
2021/03/04 17:32:50;;;;;;;14.00;4.47;;;;;;;17.88;31.67;98714.75;6815174;29;20238;-81
2021/03/04 17:36:11;;;;;;;9.37;4.57;;;;;;;17.74;31.85;98705.31;6816022;29;20254;-81
2021/03/04 17:39:32;;;;;;;12.87;4.73;;;;;;;17.62;32.06;98689.06;6815510;29;20241;-81
2021/03/04 17:42:54;;;;;;;16.50;4.50;;;;;;;16.42;33.35;98589.19;6814877;29;20429;-81
2021/03/04 17:46:16;;;;;;;11.17;4.60;;;;;;;16.92;33.59;98674.38;6790327;29;20680;-81
2021/03/04 17:49:37;;;;;;;12.33;5.43;;;;;;;17.22;33.54;98706.72;6796559;29;20203;-81
2021/03/04 17:52:58;;;;;;;17.83;8.07;;;;;;;17.47;33.11;98707.13;6816522;29;20222;-82
2021/03/04 17:56:19;;;;;;;11.83;6.17;;;;;;;17.21;33.34;98703.16;6817211;29;20679;-81
2021/03/04 17:59:40;;;;;;;15.30;7.07;;;;;;;17.23;33.92;98706.44;6817493;29;20207;-82
2021/03/04 18:03:02;;;;;;;15.67;8.33;;;;;;;16.74;34.77;98690.97;6817611;29;20227;-82
2021/03/04 18:06:25;;;;;;;16.03;8.27;;;;;;;16.96;34.33;98704.66;6817683;29;20205;-81
2021/03/04 18:09:46;;;;;;;16.33;6.60;;;;;;;16.62;35.09;98714.72;6816516;29;20214;-82
2021/03/04 18:13:07;;;;;;;15.03;6.20;;;;;;;16.66;34.94;98715.06;6808175;29;20262;-82
2021/03/04 18:16:28;;;;;;;11.73;6.23;;;;;;;16.68;34.25;98682.97;6811823;29;20222;-82
2021/03/04 18:19:50;;;;;;;13.90;6.77;;;;;;;16.51;35.16;98717.53;6814685;29;20207;-82
2021/03/04 18:23:11;;;;;;;18.23;8.17;;;;;;;16.37;35.57;98703.34;6815782;29;20707;-82
2021/03/04 18:26:33;;;;;;;16.77;10.70;;;;;;;16.40;35.11;98683.84;6816834;29;20213;-82
2021/03/04 18:29:54;;;;;;;15.80;9.30;;;;;;;16.72;34.80;98673.22;6816201;29;20229;-82
2021/03/04 18:33:15;;;;;;;13.00;7.43;;;;;;;16.67;35.23;98697.63;6817725;29;20231;-82
2021/03/04 18:36:37;;;;;;;19.07;8.90;;;;;;;16.42;35.78;98689.88;6818996;29;20314;-82
2021/03/04 18:39:58;;;;;;;11.63;7.30;;;;;;;16.69;35.39;98673.75;6818363;29;20214;-82
2021/03/04 18:43:20;;;;;;;14.23;7.90;;;;;;;16.58;35.24;98680.88;6812030;29;20230;-81
2021/03/04 18:46:41;;;;;;;13.63;6.63;;;;;;;16.14;35.29;98615.56;6799185;29;20225;-82
2021/03/04 18:50:03;;;;;;;10.73;6.90;;;;;;;16.63;35.30;98661.13;6797169;29;20213;-82
2021/03/04 18:53:27;;;;;;;19.67;11.47;;;;;;;16.56;35.20;98634.03;6816764;29;20233;-84
2021/03/04 18:56:49;;;;;;;17.17;10.90;;;;;;;16.42;35.74;98679.00;6818279;29;20221;-82
2021/03/04 19:00:11;;;;;;;26.63;15.27;;;;;;;16.15;35.96;98666.22;6817531;29;20253;-83
2021/03/04 19:03:32;;;;;;;28.33;15.80;;;;;;;16.33;36.42;98714.97;6817793;29;20234;-82
2021/03/04 19:06:54;;;;;;;17.50;8.90;;;;;;;16.42;36.45;98708.94;6817708;29;20210;-82
2021/03/04 19:10:16;;;;;;;22.67;11.60;;;;;;;16.53;36.40;98705.31;6817278;29;20207;-82
2021/03/04 19:13:37;;;;;;;16.83;7.97;;;;;;;16.34;36.89;98730.22;6818242;29;20211;-83
2021/03/04 19:17:01;;;;;;;20.23;5.53;;;;;;;14.95;43.37;98739.63;6817402;29;20608;-82
2021/03/04 19:20:22;;;;;;;9.90;4.10;;;;;;;14.08;47.01;98747.59;6816824;29;20216;-82
2021/03/04 19:23:43;;;;;;;8.80;4.10;;;;;;;13.73;48.62;98731.16;6818242;29;20209;-82
2021/03/04 19:27:07;;;;;;;5.70;3.53;;;;;;;13.53;50.10;98751.41;6815922;29;20214;-82
2021/03/04 19:30:29;;;;;;;5.70;4.03;;;;;;;13.70;50.22;98757.88;6814627;29;20290;-83
2021/03/04 19:33:50;;;;;;;4.63;3.70;;;;;;;13.91;49.56;98754.69;6816425;29;20195;-83
2021/03/04 19:37:11;;;;;;;4.00;3.30;;;;;;;13.32;52.14;98773.47;6817112;29;20283;-82
2021/03/04 19:40:32;;;;;;;4.27;3.80;;;;;;;13.68;51.97;98785.19;6814792;29;20579;-82
2021/03/04 19:43:54;;;;;;;4.87;3.77;;;;;;;13.54;53.99;98799.09;6816325;29;20226;-82
2021/03/04 19:47:15;;;;;;;5.10;4.00;;;;;;;13.46;54.46;98783.16;6818539;29;20236;-82
2021/03/04 19:50:37;;;;;;;5.07;3.93;;;;;;;13.60;54.45;98782.78;6822625;29;20214;-82
2021/03/04 19:53:58;;;;;;;4.67;4.10;;;;;;;13.45;54.44;98781.50;6820621;29;20293;-82
2021/03/04 19:57:20;;;;;;;5.43;4.70;;;;;;;13.31;55.64;98783.50;6817213;29;20282;-82
2021/03/04 20:00:42;;;;;;;7.40;4.80;;;;;;;13.48;55.02;98771.03;6825667;29;20224;-82
2021/03/04 20:04:04;;;;;;;5.30;4.27;;;;;;;13.73;54.62;98795.34;6793393;29;20203;-83
2021/03/04 20:07:25;;;;;;;7.97;4.23;;;;;;;13.86;54.13;98793.31;6787431;29;20212;-83
2021/03/04 20:10:47;;;;;;;5.57;4.50;;;;;;;13.37;54.01;98750.09;6797184;29;20235;-83